PWSweather.com
Personal Weather Stations
Station Observations
RIVERSBEND
Rivers Bend, Heathsville, VA 22473

Rivers BendHeathsville, VA 22473

Lat: 37.87, Lon: -76.39

Elevation: 45

Station Type: Oregon Scientific WMR968

High Low Average
Temperature 70.0°F21.1°C 56.8°F13.8°C 62.6°F17.0°C
Dew Point 52.7°F11.5°C 31.1°F-0.5°C 42.5°F5.8°C
Winds 3.0 mph 4.8 kmh Calm Calm Calm SECalm SE
Wind Gusts 5.8 mph9.3 kmh -- 2.0 mph3.2 kmh
Humidity 75% 24% 52%
Pressure 30.59 in1035.9 mb 30.47 in1031.8 mb -
Precipitation 0.00 in0.0 mm - -
Hour Temp Dew Point Humidity Winds Wind Gusts Pressure Precip Precip Rate Daily Precip Total
12:09 AM 59.9°F15.5°C 46.0°F7.8°C 60% Calm Calm -- 30.47 in1031.8 mb 0.00 in0.0 mm 0.00 in/hr0.0 mm/hr 0.00 in0.0 mm
12:19 AM 59.5°F15.3°C 41.4°F5.2°C 51% Calm Calm -- 30.47 in1031.8 mb 0.00 in0.0 mm 0.00 in/hr0.0 mm/hr 0.00 in0.0 mm
12:30 AM 59.9°F15.5°C 47.3°F8.5°C 63% Calm Calm 2.7 mph4.3 kmh 30.47 in1031.8 mb 0.00 in0.0 mm 0.00 in/hr0.0 mm/hr 0.00 in0.0 mm
12:40 AM 59.7°F15.4°C 46.2°F7.9°C 61% Calm Calm 2.7 mph4.3 kmh 30.47 in1031.8 mb 0.00 in0.0 mm 0.00 in/hr0.0 mm/hr 0.00 in0.0 mm
12:50 AM 59.7°F15.4°C 48.0°F8.9°C 65% Calm Calm 3.1 mph5.0 kmh 30.47 in1031.8 mb 0.00 in0.0 mm 0.00 in/hr0.0 mm/hr 0.00 in0.0 mm
01:00 AM 59.7°F15.4°C 49.1°F9.5°C 68% 1.0 mph SSE1.6 kmh SSE 4.0 mph6.4 kmh 30.47 in1031.8 mb 0.00 in0.0 mm 0.00 in/hr0.0 mm/hr 0.00 in0.0 mm
01:10 AM 59.4°F15.2°C 47.7°F8.7°C 65% 1.0 mph S1.6 kmh S 2.7 mph4.3 kmh 30.47 in1031.8 mb 0.00 in0.0 mm 0.00 in/hr0.0 mm/hr 0.00 in0.0 mm
01:20 AM 58.8°F14.9°C 44.6°F7.0°C 59% Calm Calm -- 30.47 in1031.8 mb 0.00 in0.0 mm 0.00 in/hr0.0 mm/hr 0.00 in0.0 mm
01:30 AM 58.6°F14.8°C 43.9°F6.6°C 58% Calm Calm -- 30.47 in1031.8 mb 0.00 in0.0 mm 0.00 in/hr0.0 mm/hr 0.00 in0.0 mm
01:40 AM 58.3°F14.6°C 42.3°F5.7°C 55% Calm Calm -- 30.47 in1031.8 mb 0.00 in0.0 mm 0.00 in/hr0.0 mm/hr 0.00 in0.0 mm
01:50 AM 57.9°F14.4°C 40.8°F4.9°C 53% Calm Calm -- 30.47 in1031.8 mb 0.00 in0.0 mm 0.00 in/hr0.0 mm/hr 0.00 in0.0 mm
02:00 AM 57.6°F14.2°C 41.5°F5.3°C 55% Calm Calm -- 30.47 in1031.8 mb 0.00 in0.0 mm 0.00 in/hr0.0 mm/hr 0.00 in0.0 mm
02:10 AM 57.7°F14.3°C 43.5°F6.4°C 59% Calm Calm -- 30.47 in1031.8 mb 0.00 in0.0 mm 0.00 in/hr0.0 mm/hr 0.00 in0.0 mm
02:20 AM 57.2°F14.0°C 42.1°F5.6°C 57% Calm Calm -- 30.47 in1031.8 mb 0.00 in0.0 mm 0.00 in/hr0.0 mm/hr 0.00 in0.0 mm
02:30 AM 57.2°F14.0°C 43.5°F6.4°C 60% Calm Calm -- 30.47 in1031.8 mb 0.00 in0.0 mm 0.00 in/hr0.0 mm/hr 0.00 in0.0 mm
02:40 AM 57.2°F14.0°C 44.2°F6.8°C 62% Calm Calm -- 30.47 in1031.8 mb 0.00 in0.0 mm 0.00 in/hr0.0 mm/hr 0.00 in0.0 mm
02:50 AM 57.2°F14.0°C 44.2°F6.8°C 62% Calm Calm -- 30.47 in1031.8 mb 0.00 in0.0 mm 0.00 in/hr0.0 mm/hr 0.00 in0.0 mm
03:00 AM 57.0°F13.9°C 43.7°F6.5°C 61% Calm Calm -- 30.47 in1031.8 mb 0.00 in0.0 mm 0.00 in/hr0.0 mm/hr 0.00 in0.0 mm
03:10 AM 57.0°F13.9°C 44.6°F7.0°C 63% Calm Calm -- 30.47 in1031.8 mb 0.00 in0.0 mm 0.00 in/hr0.0 mm/hr 0.00 in0.0 mm
03:20 AM 56.8°F13.8°C 45.1°F7.3°C 65% Calm Calm -- 30.47 in1031.8 mb 0.00 in0.0 mm 0.00 in/hr0.0 mm/hr 0.00 in0.0 mm
03:30 AM 57.2°F14.0°C 46.8°F8.2°C 68% Calm Calm -- 30.47 in1031.8 mb 0.00 in0.0 mm 0.00 in/hr0.0 mm/hr 0.00 in0.0 mm
03:41 AM 57.6°F14.2°C 47.5°F8.6°C 69% Calm Calm -- 30.47 in1031.8 mb 0.00 in0.0 mm 0.00 in/hr0.0 mm/hr 0.00 in0.0 mm
03:51 AM 57.7°F14.3°C 47.7°F8.7°C 69% Calm Calm -- 30.47 in1031.8 mb 0.00 in0.0 mm 0.00 in/hr0.0 mm/hr 0.00 in0.0 mm
04:01 AM 57.7°F14.3°C 47.7°F8.7°C 69% Calm Calm -- 30.47 in1031.8 mb 0.00 in0.0 mm 0.00 in/hr0.0 mm/hr 0.00 in0.0 mm
04:11 AM 57.9°F14.4°C 48.2°F9.0°C 70% Calm Calm -- 30.47 in1031.8 mb 0.00 in0.0 mm 0.00 in/hr0.0 mm/hr 0.00 in0.0 mm
04:21 AM 57.9°F14.4°C 48.6°F9.2°C 71% Calm Calm -- 30.47 in1031.8 mb 0.00 in0.0 mm 0.00 in/hr0.0 mm/hr 0.00 in0.0 mm
04:31 AM 58.1°F14.5°C 48.7°F9.3°C 71% Calm Calm -- 30.47 in1031.8 mb 0.00 in0.0 mm 0.00 in/hr0.0 mm/hr 0.00 in0.0 mm
04:41 AM 58.1°F14.5°C 48.7°F9.3°C 71% Calm Calm -- 30.47 in1031.8 mb 0.00 in0.0 mm 0.00 in/hr0.0 mm/hr 0.00 in0.0 mm
04:52 AM 58.1°F14.5°C 48.7°F9.3°C 71% Calm Calm -- 30.47 in1031.8 mb 0.00 in0.0 mm 0.00 in/hr0.0 mm/hr 0.00 in0.0 mm
05:02 AM 58.3°F14.6°C 48.9°F9.4°C 71% Calm Calm -- 30.47 in1031.8 mb 0.00 in0.0 mm 0.00 in/hr0.0 mm/hr 0.00 in0.0 mm
05:12 AM 58.3°F14.6°C 48.9°F9.4°C 71% Calm Calm -- 30.47 in1031.8 mb 0.00 in0.0 mm 0.00 in/hr0.0 mm/hr 0.00 in0.0 mm
05:22 AM 58.3°F14.6°C 49.3°F9.6°C 72% Calm Calm -- 30.47 in1031.8 mb 0.00 in0.0 mm 0.00 in/hr0.0 mm/hr 0.00 in0.0 mm
05:32 AM 58.3°F14.6°C 49.3°F9.6°C 72% Calm Calm -- 30.47 in1031.8 mb 0.00 in0.0 mm 0.00 in/hr0.0 mm/hr 0.00 in0.0 mm
05:43 AM 58.1°F14.5°C 49.1°F9.5°C 72% Calm Calm -- 30.47 in1031.8 mb 0.00 in0.0 mm 0.00 in/hr0.0 mm/hr 0.00 in0.0 mm
05:53 AM 58.3°F14.6°C 49.3°F9.6°C 72% Calm Calm -- 30.47 in1031.8 mb 0.00 in0.0 mm 0.00 in/hr0.0 mm/hr 0.00 in0.0 mm
06:03 AM 58.3°F14.6°C 49.3°F9.6°C 72% Calm Calm -- 30.47 in1031.8 mb 0.00 in0.0 mm 0.00 in/hr0.0 mm/hr 0.00 in0.0 mm
06:13 AM 58.3°F14.6°C 49.3°F9.6°C 72% Calm Calm -- 30.53 in1033.9 mb 0.00 in0.0 mm 0.00 in/hr0.0 mm/hr 0.00 in0.0 mm
06:23 AM 58.3°F14.6°C 49.3°F9.6°C 72% Calm Calm -- 30.53 in1033.9 mb 0.00 in0.0 mm 0.00 in/hr0.0 mm/hr 0.00 in0.0 mm
06:33 AM 58.3°F14.6°C 49.6°F9.8°C 73% Calm Calm -- 30.53 in1033.9 mb 0.00 in0.0 mm 0.00 in/hr0.0 mm/hr 0.00 in0.0 mm
06:44 AM 58.3°F14.6°C 49.6°F9.8°C 73% Calm Calm -- 30.53 in1033.9 mb 0.00 in0.0 mm 0.00 in/hr0.0 mm/hr 0.00 in0.0 mm
06:54 AM 58.3°F14.6°C 49.6°F9.8°C 73% Calm Calm -- 30.53 in1033.9 mb 0.00 in0.0 mm 0.00 in/hr0.0 mm/hr 0.00 in0.0 mm
07:04 AM 58.5°F14.7°C 49.8°F9.9°C 73% Calm Calm -- 30.53 in1033.9 mb 0.00 in0.0 mm 0.00 in/hr0.0 mm/hr 0.00 in0.0 mm
07:14 AM 58.8°F14.9°C 50.5°F10.3°C 74% Calm Calm -- 30.53 in1033.9 mb 0.00 in0.0 mm 0.00 in/hr0.0 mm/hr 0.00 in0.0 mm
07:25 AM 59.2°F15.1°C 50.9°F10.5°C 74% Calm Calm -- 30.53 in1033.9 mb 0.00 in0.0 mm 0.00 in/hr0.0 mm/hr 0.00 in0.0 mm
07:35 AM 59.4°F15.2°C 51.4°F10.8°C 75% Calm Calm -- 30.53 in1033.9 mb 0.00 in0.0 mm 0.00 in/hr0.0 mm/hr 0.00 in0.0 mm
07:45 AM 59.5°F15.3°C 51.6°F10.9°C 75% Calm Calm -- 30.53 in1033.9 mb 0.00 in0.0 mm 0.00 in/hr0.0 mm/hr 0.00 in0.0 mm
07:55 AM 59.7°F15.4°C 51.8°F11.0°C 75% Calm Calm 2.2 mph3.5 kmh 30.53 in1033.9 mb 0.00 in0.0 mm 0.00 in/hr0.0 mm/hr 0.00 in0.0 mm
08:05 AM 59.9°F15.5°C 52.0°F11.1°C 75% Calm Calm -- 30.53 in1033.9 mb 0.00 in0.0 mm 0.00 in/hr0.0 mm/hr 0.00 in0.0 mm
08:15 AM 60.1°F15.6°C 52.2°F11.2°C 75% Calm Calm 4.0 mph6.4 kmh 30.53 in1033.9 mb 0.00 in0.0 mm 0.00 in/hr0.0 mm/hr 0.00 in0.0 mm
08:25 AM 60.3°F15.7°C 52.3°F11.3°C 75% Calm Calm -- 30.53 in1033.9 mb 0.00 in0.0 mm 0.00 in/hr0.0 mm/hr 0.00 in0.0 mm
08:36 AM 60.3°F15.7°C 52.0°F11.1°C 74% Calm Calm -- 30.53 in1033.9 mb 0.00 in0.0 mm 0.00 in/hr0.0 mm/hr 0.00 in0.0 mm
08:46 AM 60.6°F15.9°C 52.3°F11.3°C 74% Calm Calm -- 30.53 in1033.9 mb 0.00 in0.0 mm 0.00 in/hr0.0 mm/hr 0.00 in0.0 mm
08:56 AM 61.0°F16.1°C 52.7°F11.5°C 74% Calm Calm -- 30.53 in1033.9 mb 0.00 in0.0 mm 0.00 in/hr0.0 mm/hr 0.00 in0.0 mm
09:07 AM 61.2°F16.2°C 52.5°F11.4°C 73% Calm Calm -- 30.53 in1033.9 mb 0.00 in0.0 mm 0.00 in/hr0.0 mm/hr 0.00 in0.0 mm
09:17 AM 61.3°F16.3°C 52.5°F11.4°C 73% Calm Calm -- 30.53 in1033.9 mb 0.00 in0.0 mm 0.00 in/hr0.0 mm/hr 0.00 in0.0 mm
09:28 AM 61.5°F16.4°C 52.0°F11.1°C 71% Calm Calm -- 30.53 in1033.9 mb 0.00 in0.0 mm 0.00 in/hr0.0 mm/hr 0.00 in0.0 mm
09:38 AM 61.7°F16.5°C 52.2°F11.2°C 71% Calm Calm -- 30.53 in1033.9 mb 0.00 in0.0 mm 0.00 in/hr0.0 mm/hr 0.00 in0.0 mm
09:49 AM 61.7°F16.5°C 51.8°F11.0°C 70% Calm Calm -- 30.53 in1033.9 mb 0.00 in0.0 mm 0.00 in/hr0.0 mm/hr 0.00 in0.0 mm
09:59 AM 61.9°F16.6°C 51.6°F10.9°C 69% Calm Calm -- 30.53 in1033.9 mb 0.00 in0.0 mm 0.00 in/hr0.0 mm/hr 0.00 in0.0 mm
10:09 AM 62.2°F16.8°C 49.8°F9.9°C 64% Calm Calm -- 30.59 in1035.9 mb 0.00 in0.0 mm 0.00 in/hr0.0 mm/hr 0.00 in0.0 mm
10:19 AM 63.0°F17.2°C 48.9°F9.4°C 60% Calm Calm -- 30.59 in1035.9 mb 0.00 in0.0 mm 0.00 in/hr0.0 mm/hr 0.00 in0.0 mm
10:30 AM 63.5°F17.5°C 43.5°F6.4°C 48% Calm Calm -- 30.53 in1033.9 mb 0.00 in0.0 mm 0.00 in/hr0.0 mm/hr 0.00 in0.0 mm
10:40 AM 63.7°F17.6°C 41.4°F5.2°C 44% Calm Calm -- 30.53 in1033.9 mb 0.00 in0.0 mm 0.00 in/hr0.0 mm/hr 0.00 in0.0 mm
10:50 AM 64.0°F17.8°C 40.5°F4.7°C 42% Calm Calm -- 30.53 in1033.9 mb 0.00 in0.0 mm 0.00 in/hr0.0 mm/hr 0.00 in0.0 mm
11:00 AM 64.9°F18.3°C 39.4°F4.1°C 39% Calm Calm -- 30.53 in1033.9 mb 0.00 in0.0 mm 0.00 in/hr0.0 mm/hr 0.00 in0.0 mm
11:10 AM 65.5°F18.6°C 38.5°F3.6°C 37% Calm Calm 3.6 mph5.8 kmh 30.53 in1033.9 mb 0.00 in0.0 mm 0.00 in/hr0.0 mm/hr 0.00 in0.0 mm
11:21 AM 66.0°F18.9°C 39.0°F3.9°C 37% Calm Calm -- 30.53 in1033.9 mb 0.00 in0.0 mm 0.00 in/hr0.0 mm/hr 0.00 in0.0 mm
11:31 AM 66.4°F19.1°C 37.9°F3.3°C 35% Calm Calm 2.7 mph4.3 kmh 30.53 in1033.9 mb 0.00 in0.0 mm 0.00 in/hr0.0 mm/hr 0.00 in0.0 mm
11:41 AM 67.5°F19.7°C 35.8°F2.1°C 31% Calm Calm 4.0 mph6.4 kmh 30.53 in1033.9 mb 0.00 in0.0 mm 0.00 in/hr0.0 mm/hr 0.00 in0.0 mm
11:51 AM 68.0°F20.0°C 34.5°F1.4°C 29% Calm Calm 3.1 mph5.0 kmh 30.53 in1033.9 mb 0.00 in0.0 mm 0.00 in/hr0.0 mm/hr 0.00 in0.0 mm
12:01 PM 68.0°F20.0°C 36.3°F2.4°C 31% Calm Calm -- 30.53 in1033.9 mb 0.00 in0.0 mm 0.00 in/hr0.0 mm/hr 0.00 in0.0 mm
12:11 PM 69.1°F20.6°C 32.7°F0.4°C 26% Calm Calm 4.0 mph6.4 kmh 30.53 in1033.9 mb 0.00 in0.0 mm 0.00 in/hr0.0 mm/hr 0.00 in0.0 mm
12:21 PM 69.1°F20.6°C 34.5°F1.4°C 28% Calm Calm 3.6 mph5.8 kmh 30.53 in1033.9 mb 0.00 in0.0 mm 0.00 in/hr0.0 mm/hr 0.00 in0.0 mm
12:31 PM 69.3°F20.7°C 33.8°F1.0°C 27% Calm Calm -- 30.53 in1033.9 mb 0.00 in0.0 mm 0.00 in/hr0.0 mm/hr 0.00 in0.0 mm
12:41 PM 69.3°F20.7°C 32.0°F0.0°C 25% Calm Calm 3.1 mph5.0 kmh 30.53 in1033.9 mb 0.00 in0.0 mm 0.00 in/hr0.0 mm/hr 0.00 in0.0 mm
12:51 PM 69.6°F20.9°C 32.2°F0.1°C 25% Calm Calm 3.1 mph5.0 kmh 30.53 in1033.9 mb 0.00 in0.0 mm 0.00 in/hr0.0 mm/hr 0.00 in0.0 mm
01:01 PM 69.4°F20.8°C 33.1°F0.6°C 26% Calm Calm 3.6 mph5.8 kmh 30.53 in1033.9 mb 0.00 in0.0 mm 0.00 in/hr0.0 mm/hr 0.00 in0.0 mm
01:11 PM 70.0°F21.1°C 31.5°F-0.3°C 24% Calm Calm 4.0 mph6.4 kmh 30.53 in1033.9 mb 0.00 in0.0 mm 0.00 in/hr0.0 mm/hr 0.00 in0.0 mm
01:21 PM 69.6°F20.9°C 32.2°F0.1°C 25% Calm Calm -- 30.53 in1033.9 mb 0.00 in0.0 mm 0.00 in/hr0.0 mm/hr 0.00 in0.0 mm
01:31 PM 69.8°F21.0°C 32.4°F0.2°C 25% 1.0 mph S1.6 kmh S 4.0 mph6.4 kmh 30.53 in1033.9 mb 0.00 in0.0 mm 0.00 in/hr0.0 mm/hr 0.00 in0.0 mm
01:41 PM 69.1°F20.6°C 31.8°F-0.1°C 25% 1.0 mph N1.6 kmh N 4.0 mph6.4 kmh 30.47 in1031.8 mb 0.00 in0.0 mm 0.00 in/hr0.0 mm/hr 0.00 in0.0 mm
01:51 PM 68.2°F20.1°C 32.0°F0.0°C 26% 2.0 mph N3.2 kmh N 4.0 mph6.4 kmh 30.47 in1031.8 mb 0.00 in0.0 mm 0.00 in/hr0.0 mm/hr 0.00 in0.0 mm
02:01 PM 68.2°F20.1°C 32.0°F0.0°C 26% 2.0 mph N3.2 kmh N 4.0 mph6.4 kmh 30.53 in1033.9 mb 0.00 in0.0 mm 0.00 in/hr0.0 mm/hr 0.00 in0.0 mm
02:11 PM 68.2°F20.1°C 32.9°F0.5°C 27% 2.0 mph N3.2 kmh N 3.6 mph5.8 kmh 30.53 in1033.9 mb 0.00 in0.0 mm 0.00 in/hr0.0 mm/hr 0.00 in0.0 mm
02:21 PM 68.7°F20.4°C 31.5°F-0.3°C 25% 1.0 mph NNE1.6 kmh NNE 4.9 mph7.9 kmh 30.53 in1033.9 mb 0.00 in0.0 mm 0.00 in/hr0.0 mm/hr 0.00 in0.0 mm
02:31 PM 68.7°F20.4°C 31.5°F-0.3°C 25% 1.0 mph E1.6 kmh E 3.6 mph5.8 kmh 30.47 in1031.8 mb 0.00 in0.0 mm 0.00 in/hr0.0 mm/hr 0.00 in0.0 mm
02:41 PM 68.4°F20.2°C 31.1°F-0.5°C 25% 1.0 mph ENE1.6 kmh ENE 4.0 mph6.4 kmh 30.47 in1031.8 mb 0.00 in0.0 mm 0.00 in/hr0.0 mm/hr 0.00 in0.0 mm
02:51 PM 68.0°F20.0°C 31.8°F-0.1°C 26% 1.0 mph NNE1.6 kmh NNE 4.0 mph6.4 kmh 30.47 in1031.8 mb 0.00 in0.0 mm 0.00 in/hr0.0 mm/hr 0.00 in0.0 mm
03:01 PM 67.6°F19.8°C 34.2°F1.2°C 29% 1.0 mph NNE1.6 kmh NNE 4.0 mph6.4 kmh 30.47 in1031.8 mb 0.00 in0.0 mm 0.00 in/hr0.0 mm/hr 0.00 in0.0 mm
03:11 PM 67.8°F19.9°C 33.4°F0.8°C 28% Calm Calm 3.1 mph5.0 kmh 30.47 in1031.8 mb 0.00 in0.0 mm 0.00 in/hr0.0 mm/hr 0.00 in0.0 mm
03:22 PM 67.6°F19.8°C 33.4°F0.8°C 28% 1.0 mph NE1.6 kmh NE 3.6 mph5.8 kmh 30.53 in1033.9 mb 0.00 in0.0 mm 0.00 in/hr0.0 mm/hr 0.00 in0.0 mm
03:32 PM 67.5°F19.7°C 34.9°F1.6°C 30% 1.0 mph E1.6 kmh E 3.1 mph5.0 kmh 30.53 in1033.9 mb 0.00 in0.0 mm 0.00 in/hr0.0 mm/hr 0.00 in0.0 mm
03:43 PM 67.3°F19.6°C 34.7°F1.5°C 30% 1.0 mph ESE1.6 kmh ESE 3.6 mph5.8 kmh 30.53 in1033.9 mb 0.00 in0.0 mm 0.00 in/hr0.0 mm/hr 0.00 in0.0 mm
03:53 PM 67.1°F19.5°C 35.4°F1.9°C 31% Calm Calm 3.6 mph5.8 kmh 30.53 in1033.9 mb 0.00 in0.0 mm 0.00 in/hr0.0 mm/hr 0.00 in0.0 mm
04:03 PM 66.9°F19.4°C 36.1°F2.3°C 32% Calm Calm 3.1 mph5.0 kmh 30.47 in1031.8 mb 0.00 in0.0 mm 0.00 in/hr0.0 mm/hr 0.00 in0.0 mm
04:13 PM 66.4°F19.1°C 36.3°F2.4°C 33% 1.0 mph SE1.6 kmh SE 5.4 mph8.7 kmh 30.47 in1031.8 mb 0.00 in0.0 mm 0.00 in/hr0.0 mm/hr 0.00 in0.0 mm
04:23 PM 66.4°F19.1°C 36.3°F2.4°C 33% 2.0 mph SE3.2 kmh SE 5.4 mph8.7 kmh 30.47 in1031.8 mb 0.00 in0.0 mm 0.00 in/hr0.0 mm/hr 0.00 in0.0 mm
04:33 PM 66.4°F19.1°C 35.6°F2.0°C 32% 2.0 mph SSE3.2 kmh SSE 4.0 mph6.4 kmh 30.47 in1031.8 mb 0.00 in0.0 mm 0.00 in/hr0.0 mm/hr 0.00 in0.0 mm
04:43 PM 66.6°F19.2°C 35.8°F2.1°C 32% 2.0 mph SSE3.2 kmh SSE 5.8 mph9.3 kmh 30.47 in1031.8 mb 0.00 in0.0 mm 0.00 in/hr0.0 mm/hr 0.00 in0.0 mm
04:53 PM 66.6°F19.2°C 36.5°F2.5°C 33% 2.0 mph SSE3.2 kmh SSE 4.9 mph7.9 kmh 30.47 in1031.8 mb 0.00 in0.0 mm 0.00 in/hr0.0 mm/hr 0.00 in0.0 mm
05:03 PM 66.6°F19.2°C 36.5°F2.5°C 33% 1.0 mph SSE1.6 kmh SSE 3.6 mph5.8 kmh 30.47 in1031.8 mb 0.00 in0.0 mm 0.00 in/hr0.0 mm/hr 0.00 in0.0 mm
05:13 PM 66.4°F19.1°C 36.3°F2.4°C 33% 1.0 mph SSE1.6 kmh SSE 4.0 mph6.4 kmh 30.47 in1031.8 mb 0.00 in0.0 mm 0.00 in/hr0.0 mm/hr 0.00 in0.0 mm
05:23 PM 66.4°F19.1°C 37.2°F2.9°C 34% 1.0 mph SSE1.6 kmh SSE 4.9 mph7.9 kmh 30.47 in1031.8 mb 0.00 in0.0 mm 0.00 in/hr0.0 mm/hr 0.00 in0.0 mm
05:33 PM 65.8°F18.8°C 37.4°F3.0°C 35% 2.0 mph SSE3.2 kmh SSE 5.4 mph8.7 kmh 30.47 in1031.8 mb 0.00 in0.0 mm 0.00 in/hr0.0 mm/hr 0.00 in0.0 mm
05:43 PM 65.5°F18.6°C 37.8°F3.2°C 36% 3.0 mph SSE4.8 kmh SSE 4.9 mph7.9 kmh 30.47 in1031.8 mb 0.00 in0.0 mm 0.00 in/hr0.0 mm/hr 0.00 in0.0 mm
05:53 PM 65.7°F18.7°C 37.2°F2.9°C 35% 2.0 mph SSE3.2 kmh SSE 4.9 mph7.9 kmh 30.47 in1031.8 mb 0.00 in0.0 mm 0.00 in/hr0.0 mm/hr 0.00 in0.0 mm
06:03 PM 65.5°F18.6°C 37.0°F2.8°C 35% 2.0 mph SSE3.2 kmh SSE 3.1 mph5.0 kmh 30.47 in1031.8 mb 0.00 in0.0 mm 0.00 in/hr0.0 mm/hr 0.00 in0.0 mm
06:13 PM 64.8°F18.2°C 38.5°F3.6°C 38% 2.0 mph SSE3.2 kmh SSE 3.6 mph5.8 kmh 30.53 in1033.9 mb 0.00 in0.0 mm 0.00 in/hr0.0 mm/hr 0.00 in0.0 mm
06:23 PM 64.4°F18.0°C 38.8°F3.8°C 39% 2.0 mph S3.2 kmh S 4.9 mph7.9 kmh 30.53 in1033.9 mb 0.00 in0.0 mm 0.00 in/hr0.0 mm/hr 0.00 in0.0 mm
06:33 PM 64.2°F17.9°C 40.1°F4.5°C 41% 2.0 mph SSE3.2 kmh SSE 4.0 mph6.4 kmh 30.53 in1033.9 mb 0.00 in0.0 mm 0.00 in/hr0.0 mm/hr 0.00 in0.0 mm
06:43 PM 63.9°F17.7°C 40.3°F4.6°C 42% 2.0 mph SSE3.2 kmh SSE 4.0 mph6.4 kmh 30.53 in1033.9 mb 0.00 in0.0 mm 0.00 in/hr0.0 mm/hr 0.00 in0.0 mm
06:53 PM 63.9°F17.7°C 41.0°F5.0°C 43% 2.0 mph SSE3.2 kmh SSE 3.1 mph5.0 kmh 30.47 in1031.8 mb 0.00 in0.0 mm 0.00 in/hr0.0 mm/hr 0.00 in0.0 mm
07:03 PM 63.5°F17.5°C 41.2°F5.1°C 44% 2.0 mph SSE3.2 kmh SSE 3.6 mph5.8 kmh 30.47 in1031.8 mb 0.00 in0.0 mm 0.00 in/hr0.0 mm/hr 0.00 in0.0 mm
07:13 PM 63.5°F17.5°C 41.2°F5.1°C 44% 1.0 mph SSE1.6 kmh SSE 2.7 mph4.3 kmh 30.53 in1033.9 mb 0.00 in0.0 mm 0.00 in/hr0.0 mm/hr 0.00 in0.0 mm
07:23 PM 63.3°F17.4°C 41.5°F5.3°C 45% Calm Calm -- 30.53 in1033.9 mb 0.00 in0.0 mm 0.00 in/hr0.0 mm/hr 0.00 in0.0 mm
07:33 PM 63.1°F17.3°C 42.1°F5.6°C 46% Calm Calm 3.6 mph5.8 kmh 30.53 in1033.9 mb 0.00 in0.0 mm 0.00 in/hr0.0 mm/hr 0.00 in0.0 mm
07:43 PM 63.0°F17.2°C 41.9°F5.5°C 46% 1.0 mph S1.6 kmh S 4.0 mph6.4 kmh 30.53 in1033.9 mb 0.00 in0.0 mm 0.00 in/hr0.0 mm/hr 0.00 in0.0 mm
07:53 PM 62.8°F17.1°C 41.7°F5.4°C 46% 1.0 mph S1.6 kmh S 2.7 mph4.3 kmh 30.53 in1033.9 mb 0.00 in0.0 mm 0.00 in/hr0.0 mm/hr 0.00 in0.0 mm
08:03 PM 62.6°F17.0°C 42.6°F5.9°C 48% Calm Calm -- 30.53 in1033.9 mb 0.00 in0.0 mm 0.00 in/hr0.0 mm/hr 0.00 in0.0 mm
08:13 PM 62.4°F16.9°C 42.4°F5.8°C 48% Calm Calm -- 30.53 in1033.9 mb 0.00 in0.0 mm 0.00 in/hr0.0 mm/hr 0.00 in0.0 mm
08:23 PM 62.2°F16.8°C 42.3°F5.7°C 48% Calm Calm -- 30.53 in1033.9 mb 0.00 in0.0 mm 0.00 in/hr0.0 mm/hr 0.00 in0.0 mm
08:33 PM 61.9°F16.6°C 41.9°F5.5°C 48% Calm Calm -- 30.53 in1033.9 mb 0.00 in0.0 mm 0.00 in/hr0.0 mm/hr 0.00 in0.0 mm
08:43 PM 61.7°F16.5°C 41.2°F5.1°C 47% Calm Calm -- 30.53 in1033.9 mb 0.00 in0.0 mm 0.00 in/hr0.0 mm/hr 0.00 in0.0 mm
08:54 PM 61.2°F16.2°C 40.8°F4.9°C 47% Calm Calm -- 30.53 in1033.9 mb 0.00 in0.0 mm 0.00 in/hr0.0 mm/hr 0.00 in0.0 mm
09:04 PM 60.8°F16.0°C 41.0°F5.0°C 48% Calm Calm -- 30.53 in1033.9 mb 0.00 in0.0 mm 0.00 in/hr0.0 mm/hr 0.00 in0.0 mm
09:14 PM 61.0°F16.1°C 43.7°F6.5°C 53% Calm Calm -- 30.53 in1033.9 mb 0.00 in0.0 mm 0.00 in/hr0.0 mm/hr 0.00 in0.0 mm
09:24 PM 61.3°F16.3°C 47.8°F8.8°C 61% Calm Calm -- 30.53 in1033.9 mb 0.00 in0.0 mm 0.00 in/hr0.0 mm/hr 0.00 in0.0 mm
09:34 PM 61.0°F16.1°C 46.0°F7.8°C 58% Calm Calm -- 30.53 in1033.9 mb 0.00 in0.0 mm 0.00 in/hr0.0 mm/hr 0.00 in0.0 mm
09:44 PM 60.6°F15.9°C 45.3°F7.4°C 57% Calm Calm -- 30.53 in1033.9 mb 0.00 in0.0 mm 0.00 in/hr0.0 mm/hr 0.00 in0.0 mm
09:54 PM 60.1°F15.6°C 43.9°F6.6°C 55% Calm Calm -- 30.53 in1033.9 mb 0.00 in0.0 mm 0.00 in/hr0.0 mm/hr 0.00 in0.0 mm
10:04 PM 59.7°F15.4°C 41.5°F5.3°C 51% Calm Calm -- 30.53 in1033.9 mb 0.00 in0.0 mm 0.00 in/hr0.0 mm/hr 0.00 in0.0 mm
10:14 PM 59.7°F15.4°C 42.6°F5.9°C 53% Calm Calm -- 30.53 in1033.9 mb 0.00 in0.0 mm 0.00 in/hr0.0 mm/hr 0.00 in0.0 mm
10:24 PM 59.7°F15.4°C 44.4°F6.9°C 57% Calm Calm -- 30.59 in1035.9 mb 0.00 in0.0 mm 0.00 in/hr0.0 mm/hr 0.00 in0.0 mm
10:34 PM 59.5°F15.3°C 41.9°F5.5°C 52% Calm Calm -- 30.59 in1035.9 mb 0.00 in0.0 mm 0.00 in/hr0.0 mm/hr 0.00 in0.0 mm
10:44 PM 59.4°F15.2°C 42.8°F6.0°C 54% Calm Calm -- 30.59 in1035.9 mb 0.00 in0.0 mm 0.00 in/hr0.0 mm/hr 0.00 in0.0 mm
10:54 PM 60.3°F15.7°C 49.3°F9.6°C 67% Calm Calm -- 30.59 in1035.9 mb 0.00 in0.0 mm 0.00 in/hr0.0 mm/hr 0.00 in0.0 mm
11:04 PM 60.4°F15.8°C 50.5°F10.3°C 70% Calm Calm 3.1 mph5.0 kmh 30.59 in1035.9 mb 0.00 in0.0 mm 0.00 in/hr0.0 mm/hr 0.00 in0.0 mm
11:14 PM 60.8°F16.0°C 51.3°F10.7°C 71% Calm Calm 3.6 mph5.8 kmh 30.59 in1035.9 mb 0.00 in0.0 mm 0.00 in/hr0.0 mm/hr 0.00 in0.0 mm
11:25 PM 60.8°F16.0°C 51.3°F10.7°C 71% Calm Calm 2.2 mph3.5 kmh 30.59 in1035.9 mb 0.00 in0.0 mm 0.00 in/hr0.0 mm/hr 0.00 in0.0 mm
11:35 PM 60.8°F16.0°C 51.3°F10.7°C 71% Calm Calm 2.7 mph4.3 kmh 30.59 in1035.9 mb 0.00 in0.0 mm 0.00 in/hr0.0 mm/hr 0.00 in0.0 mm
11:45 PM 60.8°F16.0°C 51.8°F11.0°C 72% Calm Calm 4.0 mph6.4 kmh 30.59 in1035.9 mb 0.00 in0.0 mm 0.00 in/hr0.0 mm/hr 0.00 in0.0 mm
11:55 PM 60.6°F15.9°C 52.0°F11.1°C 73% Calm Calm 3.6 mph5.8 kmh 30.59 in1035.9 mb 0.00 in0.0 mm 0.00 in/hr0.0 mm/hr 0.00 in0.0 mm